createdAt,value
2022-09-12T00:01:27.149Z,75.20
2022-09-12T00:03:58.245Z,75.20
2022-09-12T00:06:26.040Z,75.30
2022-09-12T00:08:57.115Z,75.20
2022-09-12T00:11:24.167Z,75.20
2022-09-12T00:13:50.788Z,75.10
2022-09-12T00:16:19.219Z,75.10
2022-09-12T00:18:46.951Z,75.10
2022-09-12T00:21:13.958Z,75.10
2022-09-12T00:23:40.575Z,75.10
2022-09-12T00:26:07.762Z,75.10
2022-09-12T00:28:35.372Z,75.20
2022-09-12T00:31:04.542Z,75.00
2022-09-12T00:33:31.341Z,75.20
2022-09-12T00:35:57.954Z,75.00
2022-09-12T00:38:24.569Z,75.00
2022-09-12T00:40:51.264Z,75.00
2022-09-12T00:43:29.923Z,75.00
2022-09-12T00:45:57.858Z,75.00
2022-09-12T00:48:30.901Z,75.00
2022-09-12T00:50:58.292Z,75.00
2022-09-12T00:53:25.559Z,75.00
2022-09-12T00:55:52.549Z,75.00
2022-09-12T00:58:23.114Z,75.00
2022-09-12T01:00:50.626Z,74.90
2022-09-12T01:03:18.895Z,75.10
2022-09-12T01:05:53.554Z,74.90
2022-09-12T01:08:20.522Z,74.90
2022-09-12T01:10:47.710Z,75.00
2022-09-12T01:13:14.656Z,74.90
2022-09-12T01:15:41.350Z,74.90
2022-09-12T01:18:14.922Z,74.90
2022-09-12T01:20:41.570Z,74.90
2022-09-12T01:23:11.345Z,74.80
2022-09-12T01:25:51.734Z,74.90
2022-09-12T01:28:21.117Z,74.90
2022-09-12T01:30:52.273Z,74.80
2022-09-12T01:33:22.042Z,74.80
2022-09-12T01:36:04.140Z,74.80
2022-09-12T01:38:37.961Z,74.80
2022-09-12T01:41:07.633Z,74.80
2022-09-12T01:43:43.588Z,74.70
2022-09-12T01:46:17.666Z,74.70
2022-09-12T01:49:08.088Z,74.70
2022-09-12T01:52:07.232Z,74.70
2022-09-12T01:54:40.173Z,74.70
2022-09-12T01:57:10.555Z,74.70
2022-09-12T01:59:40.371Z,74.70
2022-09-12T02:02:09.759Z,74.50
2022-09-12T02:04:40.183Z,75.00
2022-09-12T02:07:06.745Z,74.70
2022-09-12T02:09:38.354Z,74.60
2022-09-12T02:12:06.213Z,74.60
2022-09-12T02:14:36.769Z,74.60
2022-09-12T02:17:09.903Z,74.50
2022-09-12T02:19:39.645Z,74.60
2022-09-12T02:22:06.480Z,74.50
2022-09-12T02:24:38.686Z,74.50
2022-09-12T02:27:11.443Z,74.50
2022-09-12T02:29:38.157Z,74.40
2022-09-12T02:32:05.959Z,74.40
2022-09-12T02:34:33.205Z,74.50
2022-09-12T02:37:09.155Z,74.40
2022-09-12T02:39:35.981Z,74.40
2022-09-12T02:42:03.046Z,74.30
2022-09-12T02:44:30.650Z,74.30
2022-09-12T02:47:09.837Z,74.40
2022-09-12T02:49:36.758Z,74.40
2022-09-12T02:52:03.682Z,74.70
2022-09-12T02:54:31.011Z,74.40
2022-09-12T02:56:57.827Z,74.30
2022-09-12T02:59:25.038Z,74.40
2022-09-12T03:01:54.529Z,75.00
2022-09-12T03:04:34.703Z,74.40
2022-09-12T03:07:13.595Z,74.30
2022-09-12T03:09:47.108Z,74.30
2022-09-12T03:12:13.713Z,74.30
2022-09-12T03:14:43.410Z,74.30
2022-09-12T03:17:27.371Z,74.20
2022-09-12T03:19:57.140Z,74.20
2022-09-12T03:22:28.686Z,74.10
2022-09-12T03:25:13.975Z,74.20
2022-09-12T03:27:43.837Z,74.00
2022-09-12T03:30:11.042Z,74.10
2022-09-12T03:32:41.825Z,74.10
2022-09-12T03:35:08.625Z,74.00
2022-09-12T03:37:35.326Z,73.90
2022-09-12T03:40:02.350Z,74.00
2022-09-12T03:42:29.026Z,74.00
2022-09-12T03:44:55.640Z,73.90
2022-09-12T03:47:22.233Z,74.00
2022-09-12T03:49:48.846Z,74.00
2022-09-12T03:52:15.492Z,74.00
2022-09-12T03:54:42.103Z,74.10
2022-09-12T03:57:08.707Z,74.10
2022-09-12T03:59:35.412Z,74.00
2022-09-12T04:02:02.115Z,74.10
2022-09-12T04:04:28.806Z,74.10
2022-09-12T04:06:55.427Z,74.00
2022-09-12T04:09:22.070Z,74.00
2022-09-12T04:11:48.767Z,74.00
2022-09-12T04:14:15.467Z,73.90
2022-09-12T04:16:42.171Z,74.00
2022-09-12T04:19:11.481Z,74.00
2022-09-12T04:21:39.515Z,73.90
2022-09-12T04:24:06.169Z,74.10
2022-09-12T04:26:32.776Z,74.00
2022-09-12T04:28:59.431Z,74.00
2022-09-12T04:31:26.532Z,74.00
2022-09-12T04:33:53.851Z,74.00
2022-09-12T04:36:20.504Z,74.00
2022-09-12T04:38:47.668Z,73.90
2022-09-12T04:41:19.259Z,74.20
2022-09-12T04:43:46.607Z,74.00
2022-09-12T04:46:15.188Z,73.90
2022-09-12T04:48:42.425Z,74.00
2022-09-12T04:51:10.372Z,74.50
2022-09-12T04:53:38.073Z,73.90
2022-09-12T04:56:05.802Z,74.00
2022-09-12T04:58:33.336Z,74.00
2022-09-12T05:01:06.438Z,73.90
2022-09-12T05:03:33.338Z,73.90
2022-09-12T05:06:02.395Z,73.90
2022-09-12T05:08:29.389Z,73.90
2022-09-12T05:10:56.039Z,73.80
2022-09-12T05:13:22.723Z,73.70
2022-09-12T05:15:55.916Z,73.90
2022-09-12T05:18:22.539Z,73.70
2022-09-12T05:20:49.202Z,73.70
2022-09-12T05:23:16.034Z,73.80
2022-09-12T05:25:52.590Z,73.70
2022-09-12T05:28:19.958Z,73.70
2022-09-12T05:30:47.003Z,73.70
2022-09-12T05:33:13.981Z,73.70
2022-09-12T05:35:41.022Z,73.80
2022-09-12T05:38:08.064Z,73.80
2022-09-12T05:40:34.681Z,73.70
2022-09-12T05:43:01.362Z,73.70
2022-09-12T05:45:27.989Z,73.70
2022-09-12T05:47:54.622Z,73.50
2022-09-12T05:50:21.332Z,73.80
2022-09-12T05:52:50.578Z,73.60
2022-09-12T05:55:17.318Z,73.60
2022-09-12T05:57:46.083Z,73.60
2022-09-12T06:00:14.665Z,73.70
2022-09-12T06:02:41.348Z,73.60
2022-09-12T06:05:08.144Z,73.50
2022-09-12T06:07:36.069Z,73.50
2022-09-12T06:10:03.414Z,73.40
2022-09-12T06:12:30.279Z,73.30
2022-09-12T06:14:56.910Z,73.10
2022-09-12T06:17:23.525Z,73.00
2022-09-12T06:19:51.129Z,72.90
2022-09-12T06:22:19.094Z,72.90
2022-09-12T06:24:45.801Z,72.90
2022-09-12T06:27:12.449Z,72.90
2022-09-12T06:29:39.123Z,72.90
2022-09-12T06:32:06.972Z,72.90
2022-09-12T06:34:33.852Z,73.00
2022-09-12T06:37:00.477Z,73.00
2022-09-12T06:39:27.139Z,73.10
2022-09-12T06:41:54.323Z,73.10
2022-09-12T06:44:22.448Z,73.10
2022-09-12T06:46:49.453Z,73.20
2022-09-12T06:49:17.607Z,73.20
2022-09-12T06:51:44.487Z,73.20
2022-09-12T06:54:15.496Z,73.20
2022-09-12T06:56:42.514Z,73.30
2022-09-12T06:59:09.255Z,73.30
2022-09-12T07:01:36.018Z,73.40
2022-09-12T07:04:03.937Z,73.40
2022-09-12T07:06:34.867Z,73.50
2022-09-12T07:09:02.318Z,73.50
2022-09-12T07:11:31.858Z,73.50
2022-09-12T07:13:59.303Z,73.50
2022-09-12T07:16:25.951Z,73.50
2022-09-12T07:18:53.836Z,73.60
2022-09-12T07:21:20.842Z,73.60
2022-09-12T07:23:48.056Z,73.70
2022-09-12T07:26:15.863Z,73.70
2022-09-12T07:28:42.822Z,73.80
2022-09-12T07:31:10.866Z,73.80
2022-09-12T07:33:38.426Z,73.70
2022-09-12T07:36:11.598Z,73.80
2022-09-12T07:38:38.558Z,73.80
2022-09-12T07:41:11.973Z,73.80
2022-09-12T07:43:38.623Z,73.90
2022-09-12T07:46:05.455Z,73.90
2022-09-12T07:48:32.133Z,73.90
2022-09-12T07:51:03.418Z,73.90
2022-09-12T07:53:40.602Z,74.20
2022-09-12T07:56:08.174Z,74.00
2022-09-12T07:58:36.486Z,74.00
2022-09-12T08:01:14.332Z,74.10
2022-09-12T08:03:42.274Z,74.10
2022-09-12T08:06:10.121Z,74.20
2022-09-12T08:08:37.126Z,74.30
2022-09-12T08:11:06.001Z,74.30
2022-09-12T08:13:33.494Z,74.40
2022-09-12T08:16:01.214Z,74.40
2022-09-12T08:18:28.926Z,74.50
2022-09-12T08:21:05.934Z,74.60
2022-09-12T08:23:33.041Z,74.70
2022-09-12T08:26:05.292Z,74.50
2022-09-12T08:28:33.557Z,74.50
2022-09-12T08:31:07.692Z,74.50
2022-09-12T08:33:34.624Z,74.50
2022-09-12T08:36:08.663Z,74.40
2022-09-12T08:38:35.665Z,74.50
2022-09-12T08:41:40.907Z,74.50
2022-09-12T08:44:08.217Z,74.50
2022-09-12T08:46:47.159Z,74.50
2022-09-12T08:49:15.503Z,74.60
2022-09-12T08:51:42.573Z,74.60
2022-09-12T08:54:18.821Z,74.50
2022-09-12T08:56:45.983Z,74.50
2022-09-12T08:59:13.711Z,74.60
2022-09-12T09:01:45.471Z,74.60
2022-09-12T09:04:18.214Z,74.60
2022-09-12T09:06:59.358Z,74.50
2022-09-12T09:09:33.641Z,74.60
2022-09-12T09:12:18.763Z,74.50
2022-09-12T09:15:01.281Z,74.60
2022-09-12T09:17:32.334Z,74.60
2022-09-12T09:20:15.073Z,74.70
2022-09-12T09:22:41.674Z,74.60
2022-09-12T09:25:13.754Z,74.70
2022-09-12T09:28:01.014Z,74.70
2022-09-12T09:30:28.704Z,74.70
2022-09-12T09:32:57.401Z,74.70
2022-09-12T09:35:42.801Z,74.70
2022-09-12T09:38:12.557Z,74.70
2022-09-12T09:40:42.204Z,74.70
2022-09-12T09:43:11.942Z,74.70
2022-09-12T09:45:42.337Z,74.60
2022-09-12T09:48:10.024Z,74.60
2022-09-12T09:50:37.384Z,74.50
2022-09-12T09:53:04.128Z,74.50
2022-09-12T09:55:33.745Z,74.30
2022-09-12T09:58:00.485Z,74.30
2022-09-12T10:00:28.580Z,74.30
2022-09-12T10:03:13.745Z,74.40
2022-09-12T10:05:59.935Z,74.30
2022-09-12T10:08:35.231Z,74.40
2022-09-12T10:11:04.390Z,74.30
2022-09-12T10:13:30.996Z,74.30
2022-09-12T10:15:59.381Z,74.20
2022-09-12T10:18:36.531Z,74.30
2022-09-12T10:21:12.541Z,74.20
2022-09-12T10:23:41.372Z,74.20
2022-09-12T10:26:12.677Z,74.10
2022-09-12T10:28:43.408Z,74.20
2022-09-12T10:31:13.948Z,74.10
2022-09-12T10:33:52.885Z,74.10
2022-09-12T10:36:20.443Z,74.30
2022-09-12T10:38:54.836Z,74.30
2022-09-12T10:41:22.010Z,74.30
2022-09-12T10:43:48.808Z,74.30
2022-09-12T10:46:18.249Z,74.40
2022-09-12T10:48:48.935Z,74.40
2022-09-12T10:51:24.762Z,74.50
2022-09-12T10:53:52.377Z,74.50
2022-09-12T10:56:29.271Z,74.60
2022-09-12T10:59:04.992Z,74.60
2022-09-12T11:01:47.195Z,74.70
2022-09-12T11:04:26.201Z,74.70
2022-09-12T11:06:58.899Z,74.60
2022-09-12T11:09:44.419Z,74.60
2022-09-12T11:12:17.135Z,74.30
2022-09-12T11:14:46.768Z,74.30
2022-09-12T11:17:27.539Z,74.20
2022-09-12T11:19:54.457Z,74.20
2022-09-12T11:22:41.433Z,74.00
2022-09-12T11:25:22.381Z,73.90
2022-09-12T11:27:51.990Z,73.80
2022-09-12T11:30:18.877Z,73.80
2022-09-12T11:32:45.533Z,73.70
2022-09-12T11:35:17.085Z,73.90
2022-09-12T11:37:50.017Z,73.90
2022-09-12T11:40:24.082Z,73.90
2022-09-12T11:42:53.837Z,73.90
2022-09-12T11:45:24.181Z,74.00
2022-09-12T11:47:54.469Z,74.20
2022-09-12T11:50:28.762Z,74.00
2022-09-12T11:52:57.657Z,74.00
2022-09-12T11:55:28.138Z,73.90
2022-09-12T11:57:56.056Z,74.00
2022-09-12T12:00:22.651Z,73.90
2022-09-12T12:03:08.301Z,75.00
2022-09-12T12:06:07.537Z,74.00
2022-09-12T12:08:41.533Z,74.00
2022-09-12T12:11:09.288Z,74.00
2022-09-12T12:13:41.080Z,74.10
2022-09-12T12:16:28.132Z,74.10
2022-09-12T12:19:01.951Z,74.10
2022-09-12T12:21:28.894Z,74.00
2022-09-12T12:24:05.287Z,74.10
2022-09-12T12:26:40.809Z,74.10
2022-09-12T12:29:30.706Z,74.00
2022-09-12T12:32:01.908Z,73.90
2022-09-12T12:34:30.186Z,73.80
2022-09-12T12:36:57.495Z,73.70
2022-09-12T12:39:33.223Z,73.60
2022-09-12T12:42:00.364Z,73.30
2022-09-12T12:44:45.460Z,72.60
2022-09-12T12:47:18.884Z,72.80
2022-09-12T12:50:03.579Z,72.70
2022-09-12T12:52:56.650Z,72.60
2022-09-12T12:55:34.108Z,72.50
2022-09-12T12:58:04.622Z,72.50
2022-09-12T13:00:33.500Z,72.60
2022-09-12T13:03:09.132Z,72.70
2022-09-12T13:05:44.089Z,72.50
2022-09-12T13:08:24.779Z,72.50
2022-09-12T13:10:57.997Z,72.90
2022-09-12T13:13:30.760Z,72.80
2022-09-12T13:15:57.477Z,72.80
2022-09-12T13:18:27.780Z,72.90
2022-09-12T13:21:06.010Z,73.60
2022-09-12T13:23:32.866Z,72.90
2022-09-12T13:26:00.679Z,72.90
2022-09-12T13:28:28.237Z,72.90
2022-09-12T13:30:57.875Z,72.70
2022-09-12T13:33:24.500Z,71.70
2022-09-12T13:36:05.475Z,72.10
2022-09-12T13:38:51.069Z,72.50
2022-09-12T13:41:28.132Z,72.40
2022-09-12T13:43:54.870Z,72.60
2022-09-12T13:46:26.835Z,72.80
2022-09-12T13:48:53.914Z,72.90
2022-09-12T13:51:23.161Z,73.00
2022-09-12T13:53:50.881Z,72.80
2022-09-12T13:56:17.910Z,73.10
2022-09-12T13:58:52.511Z,73.00
2022-09-12T14:01:19.177Z,73.10
2022-09-12T14:04:04.571Z,73.00
2022-09-12T14:06:43.743Z,73.20
2022-09-12T14:09:14.643Z,73.30
2022-09-12T14:11:41.336Z,73.30
2022-09-12T14:14:17.870Z,73.30
2022-09-12T14:16:44.511Z,73.30
2022-09-12T14:19:12.444Z,73.40
2022-09-12T14:21:39.218Z,73.30
2022-09-12T14:24:06.977Z,73.20
2022-09-12T14:26:35.093Z,73.30
2022-09-12T14:29:05.029Z,73.40
2022-09-12T14:31:32.692Z,73.30
2022-09-12T14:34:10.246Z,73.40
2022-09-12T14:36:36.870Z,73.50
2022-09-12T14:39:07.591Z,73.40
2022-09-12T14:41:38.658Z,73.50
2022-09-12T14:44:08.171Z,73.60
2022-09-12T14:46:34.807Z,73.50
2022-09-12T14:49:10.408Z,73.60
2022-09-12T14:51:40.930Z,73.60
2022-09-12T14:54:27.515Z,73.60
2022-09-12T14:56:57.358Z,74.30
2022-09-12T14:59:29.104Z,73.60
2022-09-12T15:02:12.024Z,73.80
2022-09-12T15:04:39.927Z,73.70
2022-09-12T15:07:26.463Z,73.70
2022-09-12T15:09:53.142Z,73.80
2022-09-12T15:12:19.752Z,73.80
2022-09-12T15:14:46.362Z,73.80
2022-09-12T15:17:12.961Z,73.80
2022-09-12T15:19:39.568Z,74.30
2022-09-12T15:22:06.287Z,73.90
2022-09-12T15:24:32.897Z,73.90
2022-09-12T15:26:59.478Z,73.90
2022-09-12T15:29:26.094Z,74.10
2022-09-12T15:31:52.710Z,74.00
2022-09-12T15:34:20.042Z,74.00
2022-09-12T15:36:46.639Z,74.10
2022-09-12T15:39:13.399Z,74.10
2022-09-12T15:41:40.093Z,74.10
2022-09-12T15:44:08.113Z,74.00
2022-09-12T15:46:34.943Z,74.10
2022-09-12T15:49:01.622Z,74.10
2022-09-12T15:51:28.244Z,74.10
2022-09-12T15:53:54.954Z,74.20
2022-09-12T15:56:22.245Z,74.20
2022-09-12T15:58:58.683Z,74.20
2022-09-12T16:01:26.487Z,74.20
2022-09-12T16:03:53.258Z,74.20
2022-09-12T16:06:19.908Z,74.10
2022-09-12T16:08:46.678Z,74.20
2022-09-12T16:11:31.355Z,74.20
2022-09-12T16:13:58.356Z,74.20
2022-09-12T16:16:25.128Z,74.30
2022-09-12T16:18:51.808Z,74.20
2022-09-12T16:21:18.622Z,74.20
2022-09-12T16:23:46.263Z,74.30
2022-09-12T16:26:12.943Z,74.20
2022-09-12T16:28:40.066Z,74.30
2022-09-12T16:31:07.873Z,75.20
2022-09-12T16:33:34.829Z,74.30
2022-09-12T16:36:04.202Z,74.30
2022-09-12T16:38:31.649Z,74.30
2022-09-12T16:41:05.769Z,74.40
2022-09-12T16:43:33.338Z,75.00
2022-09-12T16:46:10.462Z,74.40
2022-09-12T16:48:37.998Z,74.40
2022-09-12T16:51:06.869Z,74.40
2022-09-12T16:53:34.491Z,74.40
2022-09-12T16:56:01.447Z,74.40
2022-09-12T16:58:28.163Z,74.40
2022-09-12T17:01:02.016Z,74.40
2022-09-12T17:03:28.659Z,74.40
2022-09-12T17:06:10.648Z,74.40
2022-09-12T17:08:41.471Z,74.40
2022-09-12T17:11:09.442Z,74.40
2022-09-12T17:14:00.074Z,74.40
2022-09-12T17:16:23.274Z,74.40
2022-09-12T17:18:51.402Z,74.40
2022-09-12T17:21:18.204Z,74.50
2022-09-12T17:23:45.085Z,74.40
2022-09-12T17:26:11.878Z,74.40
2022-09-12T17:28:39.012Z,74.40
2022-09-12T17:31:07.249Z,74.60
2022-09-12T17:33:34.294Z,74.40
2022-09-12T17:36:02.521Z,74.50
2022-09-12T17:38:31.630Z,74.70
2022-09-12T17:41:04.709Z,74.50
2022-09-12T17:43:31.613Z,74.50
2022-09-12T17:45:58.347Z,74.50
2022-09-12T17:48:25.037Z,74.50
2022-09-12T17:50:52.063Z,74.60
2022-09-12T17:53:18.693Z,74.70
2022-09-12T17:55:45.866Z,74.70
2022-09-12T17:58:12.712Z,74.70
2022-09-12T18:00:57.768Z,74.70
2022-09-12T18:03:24.540Z,75.40
2022-09-12T18:05:55.357Z,74.60
2022-09-12T18:08:23.147Z,74.70
2022-09-12T18:10:51.039Z,74.60
2022-09-12T18:13:18.049Z,74.70
2022-09-12T18:15:44.730Z,74.60
2022-09-12T18:18:11.401Z,74.60
2022-09-12T18:20:38.030Z,72.60
2022-09-12T18:23:04.775Z,74.50
2022-09-12T18:25:31.437Z,74.50
2022-09-12T18:27:58.031Z,74.50
2022-09-12T18:30:24.648Z,74.70
2022-09-12T18:32:51.340Z,74.50
2022-09-12T18:35:18.009Z,74.60
2022-09-12T18:37:44.937Z,74.60
2022-09-12T18:40:11.704Z,74.60
2022-09-12T18:42:38.378Z,74.50
2022-09-12T18:45:05.222Z,74.40
2022-09-12T18:47:32.107Z,74.50
2022-09-12T18:49:58.707Z,74.50
2022-09-12T18:52:25.321Z,74.60
2022-09-12T18:54:51.971Z,74.50
2022-09-12T18:57:18.750Z,74.50
2022-09-12T18:59:45.366Z,74.50
2022-09-12T19:02:15.532Z,74.50
2022-09-12T19:04:42.181Z,74.50
2022-09-12T19:07:08.792Z,74.50
2022-09-12T19:09:35.411Z,74.60
2022-09-12T19:12:02.144Z,74.60
2022-09-12T19:14:28.807Z,74.70
2022-09-12T19:16:55.467Z,74.60
2022-09-12T19:19:22.170Z,74.60
2022-09-12T19:21:48.758Z,74.60
2022-09-12T19:24:16.614Z,74.60
2022-09-12T19:26:43.449Z,74.70
2022-09-12T19:29:10.441Z,74.60
2022-09-12T19:31:37.273Z,74.60
2022-09-12T19:34:04.949Z,74.50
2022-09-12T19:36:47.677Z,74.50
2022-09-12T19:39:15.337Z,74.50
2022-09-12T19:41:42.578Z,74.60
2022-09-12T19:44:09.289Z,74.70
2022-09-12T19:46:35.979Z,74.60
2022-09-12T19:49:03.354Z,74.60
2022-09-12T19:51:30.036Z,74.60
2022-09-12T19:53:56.672Z,74.70
2022-09-12T19:56:23.328Z,74.70
2022-09-12T19:58:55.687Z,74.70
2022-09-12T20:01:29.889Z,74.70
2022-09-12T20:03:57.390Z,74.70
2022-09-12T20:06:24.238Z,74.70
2022-09-12T20:08:50.829Z,74.70
2022-09-12T20:11:19.064Z,74.70
2022-09-12T20:13:46.131Z,74.70
2022-09-12T20:16:22.076Z,74.70
2022-09-12T20:18:52.595Z,74.70
2022-09-12T20:21:20.259Z,74.70
2022-09-12T20:23:46.972Z,74.60
2022-09-12T20:26:13.809Z,74.60
2022-09-12T20:28:41.178Z,74.70
2022-09-12T20:31:10.165Z,74.70
2022-09-12T20:33:36.894Z,74.60
2022-09-12T20:36:04.653Z,74.60
2022-09-12T20:38:31.314Z,74.70
2022-09-12T20:40:58.075Z,74.70
2022-09-12T20:43:24.708Z,74.70
2022-09-12T20:45:51.362Z,74.70
2022-09-12T20:48:18.058Z,74.60
2022-09-12T20:50:44.709Z,74.60
2022-09-12T20:53:11.344Z,74.60
2022-09-12T20:55:38.038Z,74.50
2022-09-12T20:58:04.650Z,74.60
2022-09-12T21:00:31.312Z,74.60
2022-09-12T21:02:58.019Z,74.50
2022-09-12T21:05:24.621Z,74.50
2022-09-12T21:07:51.253Z,74.50
2022-09-12T21:10:19.227Z,74.50
2022-09-12T21:12:45.893Z,74.40
2022-09-12T21:15:12.705Z,74.40
2022-09-12T21:17:39.528Z,74.30
2022-09-12T21:20:11.148Z,74.30
2022-09-12T21:22:38.120Z,74.40
2022-09-12T21:25:05.097Z,74.40
2022-09-12T21:27:31.751Z,74.30
2022-09-12T21:29:59.345Z,74.30
2022-09-12T21:32:26.180Z,74.40
2022-09-12T21:34:52.805Z,74.30
2022-09-12T21:37:19.400Z,74.30
2022-09-12T21:39:46.069Z,74.20
2022-09-12T21:42:12.727Z,74.30
2022-09-12T21:44:39.366Z,74.10
2022-09-12T21:47:06.085Z,74.30
2022-09-12T21:49:32.898Z,74.20
2022-09-12T21:51:59.529Z,74.20
2022-09-12T21:54:26.168Z,74.20
2022-09-12T21:56:53.090Z,74.20
2022-09-12T21:59:19.717Z,74.20
2022-09-12T22:01:46.440Z,74.20
2022-09-12T22:04:13.090Z,74.10
2022-09-12T22:06:39.705Z,74.10
2022-09-12T22:09:07.196Z,74.10
2022-09-12T22:11:33.829Z,74.30
2022-09-12T22:14:01.136Z,74.00
2022-09-12T22:16:27.842Z,74.00
2022-09-12T22:18:54.606Z,74.00
2022-09-12T22:21:24.864Z,74.00
2022-09-12T22:24:10.227Z,74.00
2022-09-12T22:26:41.954Z,73.90
2022-09-12T22:29:10.162Z,74.10
2022-09-12T22:31:37.342Z,74.60
2022-09-12T22:34:04.084Z,74.00
2022-09-12T22:36:31.897Z,74.00
2022-09-12T22:38:59.541Z,74.10
2022-09-12T22:41:26.174Z,74.00
2022-09-12T22:43:52.806Z,74.10
2022-09-12T22:46:19.454Z,74.10
2022-09-12T22:48:46.845Z,73.90
2022-09-12T22:51:13.643Z,73.90
2022-09-12T22:53:40.251Z,73.90
2022-09-12T22:56:07.742Z,73.90
2022-09-12T22:58:37.262Z,73.60
2022-09-12T23:01:07.199Z,73.60
2022-09-12T23:03:34.013Z,73.80
2022-09-12T23:06:00.682Z,73.60
2022-09-12T23:08:29.618Z,73.50
2022-09-12T23:11:00.331Z,73.70
2022-09-12T23:13:26.954Z,73.80
2022-09-12T23:15:57.283Z,73.60
2022-09-12T23:18:23.951Z,73.70
2022-09-12T23:21:16.634Z,73.70
2022-09-12T23:23:43.593Z,73.70
2022-09-12T23:26:12.523Z,73.70
2022-09-12T23:28:40.102Z,73.70
2022-09-12T23:31:09.028Z,73.70
2022-09-12T23:33:36.128Z,73.60
2022-09-12T23:36:05.010Z,73.60
2022-09-12T23:38:32.085Z,73.60
2022-09-12T23:40:59.505Z,73.60
2022-09-12T23:43:26.526Z,73.60
2022-09-12T23:45:53.343Z,73.60
2022-09-12T23:48:20.326Z,73.40
2022-09-12T23:50:47.699Z,73.50
2022-09-12T23:53:14.899Z,73.40
2022-09-12T23:55:41.811Z,73.50
2022-09-12T23:58:08.838Z,73.40
